Time;durP1;ratioP1;P1;durP2;ratioP2;P2;SDS_P1;SDS_P2;PMS_P1;PMS_P2;Temp;Humidity;BMP_temperature;BMP_pressure;BME280_temperature;BME280_humidity;BME280_pressure;Samples;Min_cycle;Max_cycle;Signal;HPM_P1;HPM_P2
2022/02/03 00:00:17;;;;;;;23.05;15.27;;;;;;;;;;514991;28;1145;-79
2022/02/03 00:00:44;;;;;;;22.42;15.05;;;;;;;;;;515039;28;809;-79
2022/02/03 00:01:02;;;;;;;30.33;17.02;;;;;;;;;;515169;28;903;-78
2022/02/03 00:01:24;;;;;;;29.77;17.13;;;;;;;;;;515296;28;839;-78
2022/02/03 00:02:47;;;;;;;24.10;15.93;;;;;;;;;;508105;29;887;-79
2022/02/03 00:03:42;;;;;;;26.02;16.20;;;;;;;;;;512869;28;1144;-78
2022/02/03 00:04:06;;;;;;;28.10;16.63;;;;;;;;;;513300;28;922;-78
2022/02/03 00:04:25;;;;;;;26.80;16.73;;;;;;;;;;511148;29;882;-79
2022/02/03 00:04:52;;;;;;;27.83;16.40;;;;;;;;;;509236;29;1320;-78
2022/02/03 00:05:42;;;;;;;27.90;16.80;;;;;;;;;;509756;29;781;-78
2022/02/03 00:06:06;;;;;;;30.05;17.17;;;;;;;;;;507224;29;1990;-79
2022/02/03 00:06:46;;;;;;;27.92;16.38;;;;;;;;;;509219;29;845;-78
2022/02/03 00:07:04;;;;;;;24.65;15.80;;;;;;;;;;511600;28;1237;-78
2022/02/03 00:07:25;;;;;;;21.73;15.48;;;;;;;;;;511495;29;1432;-79
2022/02/03 00:08:12;;;;;;;24.30;15.32;;;;;;;;;;511449;29;1486;-79
2022/02/03 00:08:59;;;;;;;26.45;15.65;;;;;;;;;;511476;29;725;-78
2022/02/03 00:11:42;;;;;;;27.38;15.75;;;;;;;;;;515630;28;931;-79
2022/02/03 00:16:57;;;;;;;24.98;15.20;;;;;;;;;;513801;28;650;-79
2022/02/03 00:22:47;;;;;;;25.02;15.70;;;;;;;;;;515288;28;1056;-79
2022/02/03 00:24:24;;;;;;;26.52;16.60;;;;;;;;;;515470;28;725;-79
2022/02/03 00:25:22;;;;;;;25.30;15.98;;;;;;;;;;515608;28;882;-79
2022/02/03 00:25:42;;;;;;;23.60;15.50;;;;;;;;;;514291;28;840;-79
2022/02/03 00:26:00;;;;;;;25.00;15.90;;;;;;;;;;515387;28;1240;-79
2022/02/03 00:26:19;;;;;;;25.02;15.55;;;;;;;;;;514972;28;883;-79
2022/02/03 00:26:35;;;;;;;25.35;14.98;;;;;;;;;;515670;28;847;-79
2022/02/03 00:27:10;;;;;;;26.20;15.52;;;;;;;;;;515398;28;1785;-79
2022/02/03 00:27:44;;;;;;;24.25;15.60;;;;;;;;;;515481;28;930;-79
2022/02/03 00:28:27;;;;;;;22.20;15.27;;;;;;;;;;515517;28;1458;-78
2022/02/03 00:28:47;;;;;;;21.30;14.73;;;;;;;;;;513613;28;816;-79
2022/02/03 00:29:15;;;;;;;20.63;14.60;;;;;;;;;;513719;28;718;-78
2022/02/03 00:30:15;;;;;;;20.73;14.60;;;;;;;;;;507279;29;886;-79
2022/02/03 00:30:57;;;;;;;20.33;14.73;;;;;;;;;;513535;28;1431;-79
2022/02/03 00:31:22;;;;;;;23.73;15.02;;;;;;;;;;512865;28;2380;-79
2022/02/03 00:31:45;;;;;;;21.92;14.40;;;;;;;;;;513350;28;804;-79
2022/02/03 00:32:09;;;;;;;20.90;14.80;;;;;;;;;;511316;29;1373;-79
2022/02/03 00:33:17;;;;;;;20.73;14.48;;;;;;;;;;513371;28;1316;-79
2022/02/03 00:33:39;;;;;;;20.65;14.25;;;;;;;;;;512867;28;1093;-79
2022/02/03 00:34:09;;;;;;;20.60;14.00;;;;;;;;;;512086;28;1489;-79
2022/02/03 00:34:36;;;;;;;19.98;13.98;;;;;;;;;;513344;28;777;-79
2022/02/03 00:35:22;;;;;;;19.65;14.15;;;;;;;;;;512913;28;1299;-79
2022/02/03 00:36:09;;;;;;;18.85;13.88;;;;;;;;;;513410;28;1109;-79
2022/02/03 00:36:24;;;;;;;20.25;13.82;;;;;;;;;;511822;28;1415;-79
2022/02/03 00:37:30;;;;;;;19.27;14.20;;;;;;;;;;513517;28;813;-78
2022/02/03 00:38:21;;;;;;;22.15;14.63;;;;;;;;;;513254;28;955;-78
2022/02/03 00:48:22;;;;;;;19.98;13.68;;;;;;;;;;507533;29;667;-78
2022/02/03 00:48:45;;;;;;;20.40;13.70;;;;;;;;;;507060;29;802;-78
2022/02/03 00:49:03;;;;;;;20.90;13.88;;;;;;;;;;507276;29;853;-78
2022/02/03 00:49:19;;;;;;;19.90;13.27;;;;;;;;;;513420;28;1034;-78
2022/02/03 00:50:22;;;;;;;18.58;13.20;;;;;;;;;;513340;28;637;-78
2022/02/03 00:50:44;;;;;;;20.42;13.60;;;;;;;;;;514342;28;1458;-78
2022/02/03 00:51:00;;;;;;;20.98;13.88;;;;;;;;;;513899;28;1348;-78
2022/02/03 00:51:17;;;;;;;19.10;13.55;;;;;;;;;;515495;28;932;-78
2022/02/03 00:51:34;;;;;;;18.30;12.77;;;;;;;;;;514984;28;1346;-78
2022/02/03 00:51:52;;;;;;;19.75;13.02;;;;;;;;;;515229;28;812;-78
2022/02/03 00:52:09;;;;;;;22.02;13.43;;;;;;;;;;513149;28;1261;-78
2022/02/03 00:52:26;;;;;;;21.10;13.00;;;;;;;;;;511369;29;1042;-78
2022/02/03 00:52:41;;;;;;;18.77;12.60;;;;;;;;;;510813;29;586;-78
2022/02/03 00:52:59;;;;;;;19.43;12.80;;;;;;;;;;510950;29;742;-78
2022/02/03 00:53:16;;;;;;;21.17;12.95;;;;;;;;;;511439;29;868;-78
2022/02/03 00:53:31;;;;;;;20.73;12.60;;;;;;;;;;512984;28;1030;-78
2022/02/03 00:53:47;;;;;;;20.73;12.90;;;;;;;;;;511390;29;1241;-79
2022/02/03 00:54:08;;;;;;;21.00;13.60;;;;;;;;;;512793;28;841;-78
2022/02/03 00:54:24;;;;;;;20.45;13.02;;;;;;;;;;513194;28;1387;-78
2022/02/03 00:54:40;;;;;;;19.20;12.88;;;;;;;;;;511448;29;1639;-78
2022/02/03 00:54:55;;;;;;;18.70;12.98;;;;;;;;;;509803;29;973;-79
2022/02/03 00:55:10;;;;;;;17.43;12.70;;;;;;;;;;511374;29;754;-79
2022/02/03 00:55:26;;;;;;;17.83;12.23;;;;;;;;;;511459;29;849;-78
2022/02/03 00:55:46;;;;;;;18.92;12.50;;;;;;;;;;510942;28;1228;-78
2022/02/03 00:56:12;;;;;;;18.73;12.48;;;;;;;;;;511487;29;785;-78
2022/02/03 00:56:54;;;;;;;19.48;12.82;;;;;;;;;;513308;28;1392;-78
2022/02/03 00:57:15;;;;;;;19.98;12.23;;;;;;;;;;507182;28;1246;-77
2022/02/03 00:57:39;;;;;;;19.08;12.40;;;;;;;;;;515334;28;832;-78
2022/02/03 00:57:59;;;;;;;19.40;12.50;;;;;;;;;;515138;28;951;-78
2022/02/03 00:58:17;;;;;;;18.77;11.90;;;;;;;;;;515476;28;868;-79
2022/02/03 00:58:43;;;;;;;19.95;12.73;;;;;;;;;;515357;28;954;-78
2022/02/03 00:59:10;;;;;;;20.52;12.50;;;;;;;;;;514799;28;975;-78
2022/02/03 00:59:29;;;;;;;24.27;13.75;;;;;;;;;;515365;28;998;-78
2022/02/03 00:59:55;;;;;;;24.80;13.77;;;;;;;;;;513444;28;861;-78
2022/02/03 01:00:13;;;;;;;20.67;12.90;;;;;;;;;;513352;28;1348;-78
2022/02/03 01:00:31;;;;;;;22.10;12.95;;;;;;;;;;511555;29;1263;-78
2022/02/03 01:00:51;;;;;;;21.27;12.90;;;;;;;;;;511516;29;987;-78
2022/02/03 01:01:07;;;;;;;20.35;12.93;;;;;;;;;;510866;29;801;-78
2022/02/03 01:01:28;;;;;;;20.20;13.18;;;;;;;;;;511674;29;1180;-79
2022/02/03 01:01:50;;;;;;;19.98;13.13;;;;;;;;;;511621;29;836;-78
2022/02/03 01:02:09;;;;;;;21.02;13.20;;;;;;;;;;512401;28;1357;-78
2022/02/03 01:02:27;;;;;;;19.85;12.73;;;;;;;;;;514731;28;820;-78
2022/02/03 01:03:05;;;;;;;18.17;12.77;;;;;;;;;;515386;28;975;-78
2022/02/03 01:03:27;;;;;;;18.13;12.50;;;;;;;;;;515285;28;872;-78
2022/02/03 01:03:43;;;;;;;17.80;12.50;;;;;;;;;;515386;28;1029;-78
2022/02/03 01:04:07;;;;;;;17.33;11.90;;;;;;;;;;514469;28;904;-78
2022/02/03 01:04:23;;;;;;;18.40;11.93;;;;;;;;;;513829;28;781;-78
2022/02/03 01:04:42;;;;;;;19.02;12.20;;;;;;;;;;513447;28;1481;-78
2022/02/03 01:05:03;;;;;;;16.48;11.40;;;;;;;;;;512696;28;900;-78
2022/02/03 01:05:18;;;;;;;15.82;11.25;;;;;;;;;;513058;28;852;-78
2022/02/03 01:05:40;;;;;;;16.85;11.15;;;;;;;;;;513625;28;897;-78
2022/02/03 01:05:59;;;;;;;19.35;11.95;;;;;;;;;;513256;28;1285;-78
2022/02/03 01:06:17;;;;;;;17.65;11.85;;;;;;;;;;513344;28;1978;-78
2022/02/03 01:06:35;;;;;;;17.08;11.50;;;;;;;;;;513553;28;906;-78
2022/02/03 01:06:54;;;;;;;16.80;11.68;;;;;;;;;;513494;28;852;-78
2022/02/03 01:07:16;;;;;;;16.50;11.48;;;;;;;;;;511154;28;1386;-78
2022/02/03 01:07:35;;;;;;;16.92;11.30;;;;;;;;;;511456;29;1064;-78
2022/02/03 01:07:51;;;;;;;17.27;11.85;;;;;;;;;;510289;29;1957;-78
2022/02/03 01:08:16;;;;;;;17.02;11.45;;;;;;;;;;511483;29;876;-78
2022/02/03 01:08:36;;;;;;;17.33;11.07;;;;;;;;;;511181;29;824;-78
2022/02/03 01:08:55;;;;;;;16.55;10.95;;;;;;;;;;511300;29;2107;-78
2022/02/03 01:09:12;;;;;;;15.32;10.65;;;;;;;;;;511248;29;1343;-78
2022/02/03 01:09:33;;;;;;;18.08;11.27;;;;;;;;;;511540;28;1336;-78
2022/02/03 01:10:05;;;;;;;17.55;11.25;;;;;;;;;;514587;28;1439;-78
2022/02/03 01:10:29;;;;;;;15.50;10.55;;;;;;;;;;513270;28;1470;-78
2022/02/03 01:10:52;;;;;;;15.85;10.50;;;;;;;;;;514402;28;926;-78
2022/02/03 01:11:16;;;;;;;16.85;10.77;;;;;;;;;;513317;28;818;-78
2022/02/03 01:11:36;;;;;;;17.50;10.90;;;;;;;;;;510751;29;837;-78
2022/02/03 01:12:24;;;;;;;17.15;10.65;;;;;;;;;;513256;28;903;-78
2022/02/03 01:13:00;;;;;;;17.38;10.88;;;;;;;;;;514892;28;1230;-80
2022/02/03 01:13:18;;;;;;;16.35;10.45;;;;;;;;;;514941;28;1419;-80
2022/02/03 01:14:04;;;;;;;16.73;10.48;;;;;;;;;;515526;28;862;-79
2022/02/03 01:14:38;;;;;;;14.52;10.20;;;;;;;;;;514893;28;1291;-79
2022/02/03 01:15:12;;;;;;;15.15;10.10;;;;;;;;;;514264;28;780;-79
2022/02/03 01:15:48;;;;;;;14.13;10.07;;;;;;;;;;515289;28;1262;-79
2022/02/03 01:16:42;;;;;;;16.35;10.88;;;;;;;;;;515424;28;886;-79
2022/02/03 01:17:52;;;;;;;16.00;10.70;;;;;;;;;;513897;28;1166;-79
2022/02/03 01:19:29;;;;;;;16.80;10.77;;;;;;;;;;513408;28;867;-79
2022/02/03 01:33:50;;;;;;;16.90;10.45;;;;;;;;;;515788;28;667;-79
2022/02/03 01:34:56;;;;;;;16.77;11.40;;;;;;;;;;515645;28;808;-79
2022/02/03 01:37:36;;;;;;;16.80;11.57;;;;;;;;;;515890;28;709;-79
2022/02/03 01:43:28;;;;;;;21.05;14.75;;;;;;;;;;515815;28;689;-79
2022/02/03 01:43:51;;;;;;;22.58;15.13;;;;;;;;;;513802;28;769;-79
2022/02/03 01:44:23;;;;;;;22.95;14.82;;;;;;;;;;513842;28;1398;-79
2022/02/03 01:44:56;;;;;;;20.60;13.93;;;;;;;;;;513737;28;745;-79
2022/02/03 01:45:50;;;;;;;19.48;12.65;;;;;;;;;;513760;28;856;-79
2022/02/03 01:45:57;;;;;;;17.95;12.15;;;;;;;;;;513462;28;1138;-79
2022/02/03 01:46:17;;;;;;;16.65;11.55;;;;;;;;;;513873;28;1918;-79
2022/02/03 01:46:56;;;;;;;15.52;11.32;;;;;;;;;;513768;28;808;-80
2022/02/03 01:47:36;;;;;;;15.10;11.63;;;;;;;;;;513010;28;949;-80
2022/02/03 01:48:07;;;;;;;16.17;11.52;;;;;;;;;;515759;28;863;-81
2022/02/03 01:49:09;;;;;;;;;;;;;;;;;;;;;
2022/02/03 01:49:15;;;;;;;15.05;11.02;;;;;;;;;;515604;28;1095;-79
2022/02/03 01:51:56;;;;;;;19.58;12.20;;;;;;;;;;516005;28;666;-79
2022/02/03 01:52:31;;;;;;;18.00;11.80;;;;;;;;;;515854;28;1257;-79
2022/02/03 01:52:49;;;;;;;16.55;11.75;;;;;;;;;;515654;28;808;-80
2022/02/03 01:53:05;;;;;;;16.45;11.77;;;;;;;;;;513491;28;990;-79
2022/02/03 01:53:22;;;;;;;15.20;11.15;;;;;;;;;;514458;28;1148;-79
2022/02/03 01:53:37;;;;;;;15.55;11.27;;;;;;;;;;515134;28;998;-79
2022/02/03 01:53:57;;;;;;;15.27;11.27;;;;;;;;;;513857;28;919;-79
2022/02/03 01:54:13;;;;;;;15.40;11.43;;;;;;;;;;515572;28;860;-79
2022/02/03 01:54:29;;;;;;;16.48;11.20;;;;;;;;;;515549;28;855;-79
2022/02/03 01:54:51;;;;;;;15.48;11.30;;;;;;;;;;515708;28;805;-79
2022/02/03 01:55:14;;;;;;;15.02;11.57;;;;;;;;;;514455;28;943;-79
2022/02/03 01:55:29;;;;;;;16.10;11.60;;;;;;;;;;515530;28;2129;-79
2022/02/03 01:55:47;;;;;;;14.38;11.45;;;;;;;;;;513257;28;1289;-79
2022/02/03 01:56:11;;;;;;;15.55;11.30;;;;;;;;;;513689;28;860;-79
2022/02/03 01:57:05;;;;;;;14.63;11.27;;;;;;;;;;511715;29;1201;-79
2022/02/03 01:57:24;;;;;;;16.45;11.07;;;;;;;;;;507299;29;1062;-79
2022/02/03 01:58:01;;;;;;;14.38;10.73;;;;;;;;;;512882;28;1007;-79
2022/02/03 01:58:30;;;;;;;14.38;10.88;;;;;;;;;;514079;28;792;-79
2022/02/03 01:58:45;;;;;;;14.90;10.65;;;;;;;;;;515679;28;729;-79
2022/02/03 01:59:03;;;;;;;14.80;10.73;;;;;;;;;;513749;28;1161;-79
2022/02/03 01:59:21;;;;;;;15.25;10.52;;;;;;;;;;515172;28;1030;-79
2022/02/03 01:59:37;;;;;;;14.98;10.18;;;;;;;;;;515338;28;797;-79
2022/02/03 01:59:59;;;;;;;13.77;10.10;;;;;;;;;;515310;28;777;-79
2022/02/03 02:00:16;;;;;;;13.48;10.02;;;;;;;;;;515322;28;1474;-79
2022/02/03 02:00:41;;;;;;;14.93;10.52;;;;;;;;;;515743;28;820;-79
2022/02/03 02:01:00;;;;;;;14.38;10.70;;;;;;;;;;515812;28;984;-79
2022/02/03 02:01:34;;;;;;;12.90;10.20;;;;;;;;;;516019;28;797;-79
2022/02/03 02:01:51;;;;;;;15.38;10.20;;;;;;;;;;516163;28;741;-79
2022/02/03 02:02:07;;;;;;;13.82;10.20;;;;;;;;;;516073;28;839;-79
2022/02/03 02:02:30;;;;;;;14.77;10.68;;;;;;;;;;515580;28;1216;-79
2022/02/03 02:03:11;;;;;;;14.32;10.60;;;;;;;;;;513601;28;1291;-79
2022/02/03 02:03:42;;;;;;;14.77;9.95;;;;;;;;;;512299;28;1157;-79
2022/02/03 02:04:13;;;;;;;14.90;9.90;;;;;;;;;;513141;28;1468;-79
2022/02/03 02:05:06;;;;;;;13.85;10.45;;;;;;;;;;515461;28;1001;-79
2022/02/03 02:05:49;;;;;;;12.65;9.70;;;;;;;;;;512916;28;903;-79
2022/02/03 02:06:25;;;;;;;14.25;10.25;;;;;;;;;;513815;28;1910;-79
2022/02/03 02:06:58;;;;;;;13.20;10.23;;;;;;;;;;513795;28;781;-79
2022/02/03 02:07:33;;;;;;;13.23;9.95;;;;;;;;;;512158;28;859;-79
2022/02/03 02:08:11;;;;;;;14.85;9.80;;;;;;;;;;513128;28;1034;-79
2022/02/03 02:08:46;;;;;;;13.00;9.73;;;;;;;;;;514020;28;824;-79
2022/02/03 02:09:09;;;;;;;13.50;10.25;;;;;;;;;;513651;28;825;-79
2022/02/03 02:09:42;;;;;;;13.70;9.57;;;;;;;;;;513951;28;816;-79
2022/02/03 02:11:30;;;;;;;13.25;9.75;;;;;;;;;;513893;28;907;-79
2022/02/03 02:12:49;;;;;;;12.85;9.68;;;;;;;;;;515652;28;639;-79
2022/02/03 02:13:33;;;;;;;15.00;10.30;;;;;;;;;;515552;28;773;-79
2022/02/03 02:37:13;;;;;;;15.85;11.35;;;;;;;;;;514130;28;764;-79
2022/02/03 02:38:15;;;;;;;14.80;11.70;;;;;;;;;;515722;28;843;-79
2022/02/03 02:38:59;;;;;;;15.55;10.40;;;;;;;;;;515480;28;630;-79
2022/02/03 02:39:22;;;;;;;15.13;10.43;;;;;;;;;;515842;28;871;-79
2022/02/03 02:42:40;;;;;;;11.25;9.40;;;;;;;;;;509567;29;829;-79
2022/02/03 02:43:06;;;;;;;11.75;9.90;;;;;;;;;;513435;28;1133;-79
2022/02/03 02:43:31;;;;;;;11.70;9.70;;;;;;;;;;513935;28;962;-79
2022/02/03 02:43:51;;;;;;;11.93;9.77;;;;;;;;;;513537;28;2126;-79
2022/02/03 02:44:14;;;;;;;11.45;9.93;;;;;;;;;;513790;28;871;-79
2022/02/03 02:45:00;;;;;;;10.82;9.48;;;;;;;;;;513660;28;792;-79
2022/02/03 02:45:20;;;;;;;10.82;9.00;;;;;;;;;;513186;28;990;-79
2022/02/03 02:45:48;;;;;;;12.10;9.38;;;;;;;;;;513744;28;1330;-79
2022/02/03 02:46:11;;;;;;;11.10;9.30;;;;;;;;;;513392;28;895;-79
2022/02/03 02:46:29;;;;;;;11.00;9.68;;;;;;;;;;513334;28;1262;-79
2022/02/03 02:46:53;;;;;;;11.27;9.43;;;;;;;;;;513802;28;1356;-79
2022/02/03 02:47:18;;;;;;;11.68;10.38;;;;;;;;;;513651;28;998;-79
2022/02/03 02:47:53;;;;;;;11.05;9.95;;;;;;;;;;513751;28;1308;-79
2022/02/03 02:48:15;;;;;;;9.73;8.73;;;;;;;;;;513791;28;868;-79
2022/02/03 02:49:01;;;;;;;11.95;9.60;;;;;;;;;;511682;29;1141;-79
2022/02/03 02:49:45;;;;;;;11.20;9.60;;;;;;;;;;511365;29;2369;-79
2022/02/03 02:50:06;;;;;;;12.70;10.32;;;;;;;;;;509026;29;1983;-79
2022/02/03 02:50:31;;;;;;;10.77;9.68;;;;;;;;;;510002;29;848;-79
2022/02/03 02:51:06;;;;;;;10.75;9.27;;;;;;;;;;509581;29;1299;-79
2022/02/03 02:51:30;;;;;;;12.00;9.63;;;;;;;;;;509613;29;1309;-79
2022/02/03 02:52:07;;;;;;;9.93;8.35;;;;;;;;;;508679;29;1097;-79
2022/02/03 02:52:30;;;;;;;9.35;7.93;;;;;;;;;;513909;28;903;-79
2022/02/03 02:53:13;;;;;;;11.05;8.60;;;;;;;;;;513485;28;852;-79
2022/02/03 02:55:47;;;;;;;9.00;8.02;;;;;;;;;;513436;28;1108;-79
2022/02/03 02:56:52;;;;;;;9.35;8.45;;;;;;;;;;513982;28;702;-79
2022/02/03 02:58:13;;;;;;;10.32;8.57;;;;;;;;;;513479;28;1517;-79
2022/02/03 03:04:27;;;;;;;12.02;10.07;;;;;;;;;;510007;29;1280;-79
2022/02/03 03:29:39;;;;;;;11.57;9.10;;;;;;;;;;514124;28;652;-80
2022/02/03 03:30:08;;;;;;;10.57;9.40;;;;;;;;;;513240;28;1260;-80
2022/02/03 03:32:22;;;;;;;9.50;8.50;;;;;;;;;;515915;28;1399;-80
2022/02/03 03:32:47;;;;;;;9.02;7.93;;;;;;;;;;515655;28;1251;-80
2022/02/03 03:35:43;;;;;;;9.40;8.00;;;;;;;;;;515722;28;915;-81
2022/02/03 03:36:03;;;;;;;8.35;7.50;;;;;;;;;;516189;28;1362;-80
2022/02/03 03:36:21;;;;;;;8.48;7.55;;;;;;;;;;513869;28;1315;-80
2022/02/03 03:36:40;;;;;;;8.45;7.53;;;;;;;;;;511879;29;1257;-80
2022/02/03 03:36:58;;;;;;;8.82;7.93;;;;;;;;;;511684;29;796;-80
2022/02/03 03:37:25;;;;;;;8.60;7.78;;;;;;;;;;511649;29;984;-80
2022/02/03 03:37:46;;;;;;;8.27;7.47;;;;;;;;;;511941;29;836;-80
2022/02/03 03:38:05;;;;;;;8.48;7.68;;;;;;;;;;512002;29;887;-80
2022/02/03 03:38:31;;;;;;;7.70;7.00;;;;;;;;;;514234;28;789;-81
2022/02/03 03:38:49;;;;;;;7.88;7.18;;;;;;;;;;514157;28;837;-80
2022/02/03 03:39:05;;;;;;;8.23;7.38;;;;;;;;;;513895;28;1256;-81
2022/02/03 03:39:28;;;;;;;7.93;7.13;;;;;;;;;;513745;28;1228;-80
2022/02/03 03:39:48;;;;;;;7.70;6.93;;;;;;;;;;511881;29;917;-80
2022/02/03 03:40:05;;;;;;;7.93;7.10;;;;;;;;;;511531;29;905;-80
2022/02/03 03:40:21;;;;;;;7.80;6.90;;;;;;;;;;511961;29;996;-81
2022/02/03 03:40:40;;;;;;;7.87;7.10;;;;;;;;;;512002;29;885;-80
2022/02/03 03:40:57;;;;;;;7.93;7.22;;;;;;;;;;512876;28;958;-80
2022/02/03 03:41:19;;;;;;;7.88;7.18;;;;;;;;;;513268;28;977;-80
2022/02/03 03:41:35;;;;;;;7.85;7.15;;;;;;;;;;514036;28;978;-80
2022/02/03 03:41:51;;;;;;;7.63;6.93;;;;;;;;;;515054;28;1318;-80
2022/02/03 03:42:10;;;;;;;7.50;6.80;;;;;;;;;;513672;28;1172;-80
2022/02/03 03:42:34;;;;;;;7.18;6.47;;;;;;;;;;513787;28;893;-80
2022/02/03 03:43:01;;;;;;;7.78;6.97;;;;;;;;;;513712;28;884;-80
2022/02/03 03:43:41;;;;;;;7.25;6.55;;;;;;;;;;513904;28;828;-80
2022/02/03 03:44:07;;;;;;;7.13;6.43;;;;;;;;;;514151;28;867;-80
2022/02/03 03:44:24;;;;;;;8.02;6.90;;;;;;;;;;515986;28;1076;-80
2022/02/03 03:44:41;;;;;;;7.45;6.72;;;;;;;;;;515947;28;1145;-80
2022/02/03 03:45:00;;;;;;;6.95;6.32;;;;;;;;;;515591;28;772;-80
2022/02/03 03:45:19;;;;;;;7.40;6.70;;;;;;;;;;516141;28;792;-80
2022/02/03 03:45:38;;;;;;;7.68;6.88;;;;;;;;;;514311;28;1289;-80
2022/02/03 03:45:54;;;;;;;7.70;6.90;;;;;;;;;;513968;28;868;-80
2022/02/03 03:46:21;;;;;;;7.55;6.82;;;;;;;;;;511871;28;1931;-80
2022/02/03 03:46:39;;;;;;;7.55;6.85;;;;;;;;;;513979;28;777;-80
2022/02/03 03:47:00;;;;;;;7.47;6.78;;;;;;;;;;512005;29;1214;-80
2022/02/03 03:47:24;;;;;;;7.97;7.22;;;;;;;;;;512022;29;1221;-80
2022/02/03 03:47:44;;;;;;;8.02;7.22;;;;;;;;;;509802;29;1972;-80
2022/02/03 03:48:03;;;;;;;7.50;6.80;;;;;;;;;;510629;29;1035;-79
2022/02/03 03:48:20;;;;;;;7.05;6.43;;;;;;;;;;511977;29;840;-80
2022/02/03 03:49:09;;;;;;;7.05;6.35;;;;;;;;;;509703;29;1186;-80
2022/02/03 03:49:42;;;;;;;7.38;6.60;;;;;;;;;;506878;29;1246;-79
2022/02/03 03:50:14;;;;;;;7.63;6.93;;;;;;;;;;513127;28;848;-79
2022/02/03 03:50:29;;;;;;;7.43;6.70;;;;;;;;;;512643;28;1273;-79
2022/02/03 03:50:50;;;;;;;7.30;6.60;;;;;;;;;;513707;28;872;-80
2022/02/03 03:51:09;;;;;;;7.10;6.40;;;;;;;;;;513855;28;774;-80
2022/02/03 03:51:31;;;;;;;6.95;6.30;;;;;;;;;;514941;28;1130;-80
2022/02/03 03:51:56;;;;;;;7.07;6.38;;;;;;;;;;513584;28;1458;-80
2022/02/03 03:52:18;;;;;;;6.97;6.38;;;;;;;;;;514143;28;1082;-80
2022/02/03 03:52:43;;;;;;;6.90;6.20;;;;;;;;;;511851;29;1337;-80
2022/02/03 03:53:07;;;;;;;7.55;6.30;;;;;;;;;;512219;28;876;-80
2022/02/03 03:53:36;;;;;;;6.95;6.25;;;;;;;;;;513955;28;965;-79
2022/02/03 03:54:03;;;;;;;7.53;6.72;;;;;;;;;;513939;28;934;-79
2022/02/03 03:54:36;;;;;;;6.43;5.82;;;;;;;;;;514119;28;887;-79
2022/02/03 03:55:45;;;;;;;7.75;6.38;;;;;;;;;;515506;28;1399;-80
2022/02/03 03:55:53;;;;;;;7.30;6.55;;;;;;;;;;505840;29;1043;-79
2022/02/03 03:56:20;;;;;;;7.10;6.40;;;;;;;;;;515535;28;812;-80
2022/02/03 03:56:54;;;;;;;7.00;6.30;;;;;;;;;;516040;28;844;-80
2022/02/03 03:57:32;;;;;;;6.75;6.15;;;;;;;;;;513754;28;1245;-80
2022/02/03 04:00:55;;;;;;;6.32;5.72;;;;;;;;;;514022;28;808;-80
2022/02/03 04:32:46;;;;;;;5.80;4.78;;;;;;;;;;511635;29;1268;-81
2022/02/03 04:33:43;;;;;;;5.00;4.28;;;;;;;;;;511311;29;1365;-81
2022/02/03 04:34:07;;;;;;;4.90;4.18;;;;;;;;;;515646;28;1088;-80
2022/02/03 04:37:42;;;;;;;5.07;4.35;;;;;;;;;;510650;29;1288;-80
2022/02/03 04:43:45;;;;;;;;;;;;;;;;;;;;;
2022/02/03 04:51:05;;;;;;;4.78;4.30;;;;;;;;;;514243;28;667;-80
2022/02/03 04:58:09;;;;;;;5.28;4.05;;;;;;;;;;509876;29;887;-80
2022/02/03 05:02:53;;;;;;;4.70;4.20;;;;;;;;;;511740;28;1095;-80
2022/02/03 05:05:40;;;;;;;4.70;4.25;;;;;;;;;;513924;28;946;-80
2022/02/03 05:06:34;;;;;;;4.97;3.85;;;;;;;;;;513838;28;828;-80
2022/02/03 05:08:27;;;;;;;4.60;3.85;;;;;;;;;;515897;28;757;-80
2022/02/03 05:14:34;;;;;;;4.63;4.00;;;;;;;;;;511709;28;1442;-79
2022/02/03 05:18:06;;;;;;;3.95;3.47;;;;;;;;;;513799;28;714;-80
2022/02/03 05:24:58;;;;;;;4.03;3.17;;;;;;;;;;513958;28;867;-80
2022/02/03 05:44:07;;;;;;;3.40;2.13;;;;;;;;;;513957;28;848;-81
2022/02/03 05:47:47;;;;;;;2.45;2.10;;;;;;;;;;514005;28;761;-81
2022/02/03 05:50:25;;;;;;;2.88;1.90;;;;;;;;;;515707;28;691;-81
2022/02/03 06:01:29;;;;;;;1.55;1.45;;;;;;;;;;513679;28;643;-81
2022/02/03 06:02:34;;;;;;;2.58;1.50;;;;;;;;;;513726;28;785;-82
2022/02/03 06:05:29;;;;;;;1.65;1.50;;;;;;;;;;515263;28;1343;-82
2022/02/03 06:08:17;;;;;;;2.30;1.50;;;;;;;;;;509488;29;665;-82
2022/02/03 06:08:50;;;;;;;2.20;1.60;;;;;;;;;;509843;29;867;-81
2022/02/03 06:09:45;;;;;;;1.60;1.50;;;;;;;;;;515629;28;944;-81
2022/02/03 06:13:52;;;;;;;2.20;1.50;;;;;;;;;;515996;28;656;-81
2022/02/03 06:14:42;;;;;;;2.40;1.60;;;;;;;;;;515993;28;710;-81
2022/02/03 06:15:06;;;;;;;1.85;1.45;;;;;;;;;;515399;28;816;-81
2022/02/03 06:15:31;;;;;;;2.55;1.70;;;;;;;;;;515887;28;892;-81
2022/02/03 06:21:25;;;;;;;2.50;1.77;;;;;;;;;;515826;28;682;-81
2022/02/03 06:21:51;;;;;;;2.15;1.60;;;;;;;;;;516339;28;793;-81
2022/02/03 06:23:07;;;;;;;2.25;1.50;;;;;;;;;;516201;28;883;-81
2022/02/03 06:23:25;;;;;;;1.92;1.33;;;;;;;;;;515472;28;1084;-81
2022/02/03 06:23:47;;;;;;;2.55;1.60;;;;;;;;;;513081;28;1408;-81
2022/02/03 06:27:26;;;;;;;1.67;1.40;;;;;;;;;;514419;28;1263;-81
2022/02/03 06:27:44;;;;;;;1.77;1.30;;;;;;;;;;514086;28;1264;-81
2022/02/03 06:27:59;;;;;;;1.58;1.30;;;;;;;;;;512106;29;1389;-81
2022/02/03 06:28:15;;;;;;;1.30;1.20;;;;;;;;;;511854;29;694;-81
2022/02/03 06:28:30;;;;;;;1.30;1.20;;;;;;;;;;512107;29;713;-81
2022/02/03 06:28:48;;;;;;;1.70;1.37;;;;;;;;;;512232;29;757;-81
2022/02/03 06:29:05;;;;;;;1.58;1.27;;;;;;;;;;512098;29;813;-81
2022/02/03 06:29:24;;;;;;;1.52;1.27;;;;;;;;;;512350;29;841;-81
2022/02/03 06:29:47;;;;;;;1.60;1.50;;;;;;;;;;513792;28;840;-81
2022/02/03 06:30:04;;;;;;;1.83;1.60;;;;;;;;;;514235;28;1552;-81
2022/02/03 06:30:21;;;;;;;1.80;1.50;;;;;;;;;;514467;28;1395;-81
2022/02/03 06:30:36;;;;;;;2.00;1.65;;;;;;;;;;515997;28;1486;-81
2022/02/03 06:30:51;;;;;;;1.90;1.60;;;;;;;;;;516130;28;848;-81
2022/02/03 06:31:06;;;;;;;2.03;1.60;;;;;;;;;;515951;28;856;-81
2022/02/03 06:31:22;;;;;;;2.20;1.60;;;;;;;;;;514093;28;1153;-81
2022/02/03 06:31:40;;;;;;;1.90;1.40;;;;;;;;;;511965;29;1142;-81
2022/02/03 06:31:55;;;;;;;1.77;1.50;;;;;;;;;;512169;29;727;-81
2022/02/03 06:32:11;;;;;;;1.77;1.60;;;;;;;;;;512633;28;904;-81
2022/02/03 06:32:26;;;;;;;1.80;1.50;;;;;;;;;;513709;28;714;-81
2022/02/03 06:32:42;;;;;;;1.97;1.50;;;;;;;;;;514035;28;1276;-81
2022/02/03 06:32:57;;;;;;;2.15;1.60;;;;;;;;;;511688;29;1254;-82
2022/02/03 06:33:12;;;;;;;2.30;1.60;;;;;;;;;;512698;28;750;-81
2022/02/03 06:33:28;;;;;;;2.00;1.57;;;;;;;;;;514645;28;786;-82
2022/02/03 06:33:44;;;;;;;1.83;1.50;;;;;;;;;;514177;28;1137;-82
2022/02/03 06:33:59;;;;;;;1.88;1.50;;;;;;;;;;514187;28;1260;-82
2022/02/03 06:34:15;;;;;;;1.90;1.50;;;;;;;;;;514165;28;702;-82
2022/02/03 06:34:30;;;;;;;2.33;1.70;;;;;;;;;;513791;28;814;-82
2022/02/03 06:34:45;;;;;;;2.65;1.70;;;;;;;;;;514416;28;880;-81
2022/02/03 06:35:01;;;;;;;2.77;1.70;;;;;;;;;;515746;28;761;-81
2022/02/03 06:35:19;;;;;;;2.30;1.70;;;;;;;;;;516330;28;769;-82
2022/02/03 06:35:35;;;;;;;2.35;1.65;;;;;;;;;;516292;28;809;-81
2022/02/03 06:35:50;;;;;;;2.37;1.70;;;;;;;;;;516000;28;951;-81
2022/02/03 06:36:05;;;;;;;3.10;1.90;;;;;;;;;;515940;28;1153;-81
2022/02/03 06:36:21;;;;;;;2.70;1.83;;;;;;;;;;516138;28;757;-81
2022/02/03 06:36:38;;;;;;;2.37;1.87;;;;;;;;;;515770;28;837;-81
2022/02/03 06:36:54;;;;;;;2.47;1.80;;;;;;;;;;516047;28;871;-81
2022/02/03 06:37:10;;;;;;;2.45;1.80;;;;;;;;;;516044;28;722;-82
2022/02/03 06:37:27;;;;;;;2.30;1.90;;;;;;;;;;516152;28;781;-81
2022/02/03 06:37:45;;;;;;;2.13;1.90;;;;;;;;;;516181;28;817;-81
2022/02/03 06:38:00;;;;;;;2.60;1.92;;;;;;;;;;515118;28;1288;-81
2022/02/03 06:38:15;;;;;;;2.60;1.80;;;;;;;;;;516137;28;824;-81
2022/02/03 06:38:31;;;;;;;3.23;1.83;;;;;;;;;;515579;28;999;-81
2022/02/03 06:38:47;;;;;;;3.58;1.88;;;;;;;;;;516026;28;826;-82
2022/02/03 06:39:11;;;;;;;3.00;1.90;;;;;;;;;;516253;28;733;-81
2022/02/03 06:39:28;;;;;;;2.40;1.90;;;;;;;;;;516306;28;816;-81
2022/02/03 06:39:43;;;;;;;2.28;1.98;;;;;;;;;;513861;28;1446;-81
2022/02/03 06:39:59;;;;;;;2.37;2.13;;;;;;;;;;512380;28;1538;-81
2022/02/03 06:40:15;;;;;;;2.92;2.03;;;;;;;;;;514093;28;1415;-81
2022/02/03 06:40:31;;;;;;;2.83;2.00;;;;;;;;;;515948;28;793;-81
2022/02/03 06:40:46;;;;;;;2.20;2.00;;;;;;;;;;515853;28;1357;-81
2022/02/03 06:41:02;;;;;;;2.45;1.90;;;;;;;;;;515954;28;812;-81
2022/02/03 06:41:17;;;;;;;2.25;1.92;;;;;;;;;;512159;29;817;-82
2022/02/03 06:41:35;;;;;;;2.17;1.90;;;;;;;;;;512523;28;1292;-81
2022/02/03 06:41:56;;;;;;;2.50;1.92;;;;;;;;;;514090;28;828;-82
2022/02/03 06:42:12;;;;;;;2.00;1.80;;;;;;;;;;514104;28;1420;-81
2022/02/03 06:42:27;;;;;;;1.90;1.70;;;;;;;;;;512218;29;1194;-82
2022/02/03 06:42:45;;;;;;;1.83;1.70;;;;;;;;;;512974;28;865;-81
2022/02/03 06:43:00;;;;;;;2.08;1.60;;;;;;;;;;514039;28;805;-81
2022/02/03 06:43:18;;;;;;;2.50;1.50;;;;;;;;;;514143;28;797;-81
2022/02/03 06:43:33;;;;;;;2.20;1.45;;;;;;;;;;514138;28;737;-81
2022/02/03 06:43:48;;;;;;;1.93;1.67;;;;;;;;;;513957;28;811;-82
2022/02/03 06:44:04;;;;;;;2.42;1.92;;;;;;;;;;515057;28;724;-81